Time;durP1;ratioP1;P1;durP2;ratioP2;P2;SDS_P1;SDS_P2;PMS_P1;PMS_P2;Temp;Humidity;BMP_temperature;BMP_pressure;BME280_temperature;BME280_humidity;BME280_pressure;Samples;Min_cycle;Max_cycle;Signal;HPM_P1;HPM_P2
2024/04/07 00:03:06;;;;;;;4.27;2.90;;;;;;;18.45;45.06;98538.56;6734352;29;20622;-81
2024/04/07 00:06:27;;;;;;;4.83;2.80;;;;;;;18.90;44.84;98536.09;6740036;29;20689;-82
2024/04/07 00:09:51;;;;;;;4.83;2.70;;;;;;;18.90;45.02;98533.38;6757815;29;20231;-81
2024/04/07 00:13:13;;;;;;;6.57;3.03;;;;;;;18.83;45.40;98536.34;6757169;29;20259;-81
2024/04/07 00:16:34;;;;;;;5.30;3.03;;;;;;;18.88;45.39;98521.91;6758488;29;20349;-81
2024/04/07 00:19:56;;;;;;;4.63;2.70;;;;;;;18.82;45.55;98512.84;6758380;29;20232;-81
2024/04/07 00:23:21;;;;;;;3.03;2.60;;;;;;;18.91;45.05;98514.00;6758888;29;20208;-82
2024/04/07 00:26:43;;;;;;;4.83;2.60;;;;;;;18.87;44.97;98512.06;6758170;29;20220;-81
2024/04/07 00:30:06;;;;;;;4.93;2.83;;;;;;;18.75;45.38;98514.97;6756619;29;20262;-82
2024/04/07 00:33:27;;;;;;;3.47;2.70;;;;;;;18.86;45.16;98513.97;6758025;29;20240;-81
2024/04/07 00:36:48;;;;;;;5.50;3.40;;;;;;;18.59;45.73;98512.44;6757598;29;20263;-81
2024/04/07 00:40:09;;;;;;;3.23;2.50;;;;;;;18.68;45.85;98503.47;6758628;29;20315;-81
2024/04/07 00:43:31;;;;;;;4.90;2.63;;;;;;;18.67;45.77;98503.72;6758459;29;20705;-81
2024/04/07 00:46:54;;;;;;;4.17;2.80;;;;;;;18.36;46.71;98505.47;6757831;29;20275;-81
2024/04/07 00:50:16;;;;;;;4.53;2.87;;;;;;;18.33;46.65;98481.41;6758810;29;20849;-81
2024/04/07 00:53:37;;;;;;;3.90;3.30;;;;;;;18.59;46.13;98499.63;6758593;29;20294;-81
2024/04/07 00:56:58;;;;;;;4.30;2.80;;;;;;;18.28;47.02;98513.28;6756953;29;20274;-81
2024/04/07 01:00:19;;;;;;;6.93;3.30;;;;;;;18.48;47.15;98503.34;6757605;29;20316;-81
2024/04/07 01:03:42;;;;;;;6.07;3.30;;;;;;;18.21;47.98;98499.03;6758216;29;20234;-81
2024/04/07 01:07:04;;;;;;;5.50;3.07;;;;;;;17.79;48.45;98498.09;6757041;29;20372;-81
2024/04/07 01:10:25;;;;;;;6.40;3.20;;;;;;;17.94;48.54;98503.69;6757839;29;20231;-81
2024/04/07 01:13:48;;;;;;;5.50;3.40;;;;;;;18.22;47.85;98501.47;6757640;29;20251;-81
2024/04/07 01:17:09;;;;;;;4.63;3.10;;;;;;;18.35;47.50;98505.72;6759476;29;20215;-80
2024/04/07 01:20:33;;;;;;;4.83;3.07;;;;;;;18.59;46.94;98490.59;6762365;29;20238;-81
2024/04/07 01:23:56;;;;;;;3.37;3.03;;;;;;;18.27;47.71;98498.78;6762386;29;20212;-81
2024/04/07 01:27:18;;;;;;;3.33;3.00;;;;;;;17.90;48.36;98492.47;6761124;29;20240;-81
2024/04/07 01:30:40;;;;;;;4.87;3.30;;;;;;;17.91;48.87;98493.28;6761413;29;20326;-81
2024/04/07 01:34:01;;;;;;;5.77;3.30;;;;;;;18.34;47.68;98495.88;6761548;29;20212;-81
2024/04/07 01:37:22;;;;;;;3.57;3.23;;;;;;;18.12;48.07;98504.16;6761032;29;20629;-81
2024/04/07 01:40:48;;;;;;;5.17;3.30;;;;;;;18.16;48.28;98504.44;6762201;29;20264;-81
2024/04/07 01:44:08;;;;;;;5.80;3.70;;;;;;;18.20;48.16;98500.09;6762086;29;20287;-81
2024/04/07 01:47:30;;;;;;;6.70;4.07;;;;;;;18.27;48.15;98514.34;6760722;29;20582;-82
2024/04/07 01:50:51;;;;;;;4.60;3.57;;;;;;;18.18;48.41;98514.03;6761176;29;20787;-80
2024/04/07 01:54:13;;;;;;;4.93;3.63;;;;;;;18.38;47.85;98499.72;6761418;29;20223;-81
2024/04/07 01:57:37;;;;;;;5.03;3.60;;;;;;;18.26;48.41;98508.06;6762029;29;20685;-81
2024/04/07 02:00:58;;;;;;;7.63;3.30;;;;;;;18.20;47.42;98506.38;6762107;29;20238;-82
2024/04/07 02:04:19;;;;;;;5.03;3.20;;;;;;;17.85;48.80;98510.69;6762217;29;20239;-81
2024/04/07 02:07:40;;;;;;;3.83;3.10;;;;;;;17.68;49.26;98485.47;6759209;29;20766;-81
2024/04/07 02:11:03;;;;;;;5.30;3.30;;;;;;;17.85;48.77;98486.97;6761750;29;20380;-80
2024/04/07 02:14:26;;;;;;;8.37;3.43;;;;;;;17.95;49.04;98513.53;6758520;29;20363;-81
2024/04/07 02:17:47;;;;;;;7.33;3.77;;;;;;;17.95;48.98;98518.97;6762380;29;20244;-81
2024/04/07 02:21:09;;;;;;;5.13;3.40;;;;;;;17.58;49.70;98518.88;6762450;29;20323;-82
2024/04/07 02:24:30;;;;;;;4.87;4.20;;;;;;;17.56;49.98;98514.75;6761949;29;20235;-81
2024/04/07 02:27:52;;;;;;;3.77;3.47;;;;;;;17.61;49.87;98517.53;6760250;29;20679;-80
2024/04/07 02:31:14;;;;;;;3.77;3.20;;;;;;;17.79;49.76;98523.47;6762100;29;20232;-81
2024/04/07 02:34:36;;;;;;;5.87;2.83;;;;;;;17.79;49.24;98509.84;6762903;29;20617;-80
2024/04/07 02:37:57;;;;;;;5.30;3.00;;;;;;;17.57;50.01;98524.59;6756543;29;20212;-79
2024/04/07 02:41:18;;;;;;;6.33;2.90;;;;;;;16.90;50.89;98515.03;6756934;29;20767;-81
2024/04/07 02:48:20;;;;;;;4.47;3.67;;;;;;;17.09;50.98;98541.72;6758858;29;20216;-81
2024/04/07 02:51:42;;;;;;;4.50;3.10;;;;;;;17.31;50.10;98528.91;6756077;29;20689;-81
2024/04/07 02:55:04;;;;;;;3.07;2.70;;;;;;;17.32;49.93;98540.63;6772865;29;20647;-81
2024/04/07 02:58:24;;;;;;;4.70;2.40;;;;;;;17.43;48.94;98532.34;6783791;29;20777;-81
2024/04/07 03:01:46;;;;;;;2.63;2.17;;;;;;;17.73;48.06;98537.31;6783893;29;20263;-82
2024/04/07 03:05:08;;;;;;;2.97;2.67;;;;;;;17.88;47.01;98530.09;6783120;29;20248;-81
2024/04/07 03:08:29;;;;;;;2.70;2.20;;;;;;;17.85;47.46;98546.16;6780927;29;20250;-79
2024/04/07 03:11:51;;;;;;;2.73;2.47;;;;;;;17.47;47.99;98538.13;6755917;29;20212;-79
2024/04/07 03:15:11;;;;;;;3.63;2.67;;;;;;;17.22;48.16;98549.50;6754935;29;20311;-79
2024/04/07 03:18:33;;;;;;;2.90;2.37;;;;;;;17.57;47.76;98560.06;6754160;29;20224;-79
2024/04/07 03:21:56;;;;;;;3.63;2.50;;;;;;;17.88;47.26;98568.28;6757281;29;20347;-81
2024/04/07 03:25:16;;;;;;;6.27;2.43;;;;;;;17.79;47.43;98561.66;6760039;29;20355;-81
2024/04/07 03:28:38;;;;;;;2.40;2.20;;;;;;;17.82;47.65;98566.56;6760140;29;20239;-81
2024/04/07 03:31:59;;;;;;;2.87;2.37;;;;;;;17.25;49.28;98572.69;6761055;29;20275;-81
2024/04/07 03:35:21;;;;;;;3.57;2.53;;;;;;;16.39;51.04;98575.25;6760057;29;20352;-82
2024/04/07 03:38:43;;;;;;;2.50;2.30;;;;;;;16.39;51.41;98589.66;6758961;29;20960;-81
2024/04/07 03:42:06;;;;;;;4.30;2.57;;;;;;;17.10;50.45;98597.03;6759405;29;20204;-81
2024/04/07 03:45:27;;;;;;;4.13;2.90;;;;;;;16.94;50.45;98595.16;6760980;29;20210;-81
2024/04/07 03:48:49;;;;;;;2.90;2.70;;;;;;;17.14;49.72;98603.59;6759130;29;20236;-81
2024/04/07 03:52:10;;;;;;;3.27;2.87;;;;;;;16.47;52.36;98623.81;6759233;29;20800;-81
2024/04/07 03:55:32;;;;;;;3.37;2.90;;;;;;;16.89;50.84;98627.75;6759106;29;20251;-81
2024/04/07 03:58:54;;;;;;;3.70;2.63;;;;;;;17.34;49.48;98631.94;6760547;29;20232;-81
2024/04/07 04:02:20;;;;;;;2.70;2.30;;;;;;;17.37;49.65;98626.00;6763007;29;20248;-81
2024/04/07 04:05:41;;;;;;;4.23;2.60;;;;;;;17.44;49.09;98639.47;6763314;29;20228;-81
2024/04/07 04:09:05;;;;;;;4.90;2.50;;;;;;;17.56;48.16;98646.44;6761925;29;20281;-81
2024/04/07 04:12:28;;;;;;;3.83;2.47;;;;;;;17.40;48.94;98651.97;6763455;29;20211;-81
2024/04/07 04:15:50;;;;;;;3.30;2.90;;;;;;;17.42;49.02;98649.81;6763034;29;20212;-80
2024/04/07 04:19:12;;;;;;;4.90;2.30;;;;;;;17.34;49.26;98659.19;6762065;29;20239;-81
2024/04/07 04:22:33;;;;;;;3.10;2.60;;;;;;;17.80;48.53;98660.66;6762616;29;20345;-81
2024/04/07 04:25:56;;;;;;;4.80;2.53;;;;;;;17.62;48.05;98639.97;6760640;29;20680;-80
2024/04/07 04:29:19;;;;;;;4.13;2.80;;;;;;;17.65;48.23;98649.56;6733255;29;20232;-79
2024/04/07 04:32:40;;;;;;;3.87;2.53;;;;;;;16.41;51.56;98666.47;6731389;29;20324;-79
2024/04/07 04:36:01;;;;;;;2.60;2.33;;;;;;;17.15;50.37;98676.09;6732171;29;20906;-79
2024/04/07 04:39:22;;;;;;;3.10;2.60;;;;;;;17.29;49.87;98678.19;6731295;29;20232;-80
2024/04/07 04:42:44;;;;;;;3.63;3.13;;;;;;;17.16;50.29;98675.03;6732204;29;20224;-79
2024/04/07 04:46:07;;;;;;;4.70;2.47;;;;;;;17.39;49.83;98670.22;6731744;29;20706;-79
2024/04/07 04:49:28;;;;;;;3.80;2.60;;;;;;;16.69;50.50;98679.19;6730733;29;20229;-78
2024/04/07 04:52:50;;;;;;;3.80;2.63;;;;;;;16.53;51.69;98694.44;6731434;29;20786;-79
2024/04/07 04:56:11;;;;;;;3.67;2.70;;;;;;;16.68;51.44;98704.75;6731100;29;20303;-79
2024/04/07 04:59:33;;;;;;;2.60;2.37;;;;;;;17.19;50.09;98710.78;6730733;29;20240;-79
2024/04/07 05:02:55;;;;;;;4.17;2.80;;;;;;;16.83;51.35;98715.88;6731770;29;20359;-79
2024/04/07 05:06:17;;;;;;;3.60;2.97;;;;;;;17.30;49.90;98726.19;6735235;29;20239;-79
2024/04/07 05:09:38;;;;;;;4.00;2.80;;;;;;;17.26;50.24;98738.66;6730593;29;20239;-79
2024/04/07 05:12:59;;;;;;;8.73;2.97;;;;;;;17.51;49.85;98730.09;6730934;29;20642;-79
2024/04/07 05:16:21;;;;;;;3.00;2.57;;;;;;;17.60;49.05;98734.84;6730408;29;20686;-79
2024/04/07 05:19:43;;;;;;;2.73;2.50;;;;;;;17.55;48.92;98736.66;6730596;29;20327;-79
2024/04/07 05:23:04;;;;;;;2.57;2.37;;;;;;;17.74;48.40;98730.66;6738459;29;20220;-79
2024/04/07 05:26:25;;;;;;;2.77;2.50;;;;;;;17.37;48.82;98745.94;6756122;29;20318;-79
2024/04/07 05:29:48;;;;;;;3.57;2.80;;;;;;;17.67;48.67;98770.09;6754965;29;20283;-79
2024/04/07 05:33:09;;;;;;;2.87;2.57;;;;;;;17.57;48.97;98768.06;6755669;29;20294;-79
2024/04/07 05:36:31;;;;;;;3.30;2.60;;;;;;;17.22;50.54;98763.94;6755226;29;20351;-79
2024/04/07 05:39:53;;;;;;;4.63;3.10;;;;;;;17.20;50.44;98769.63;6755483;29;20234;-79
2024/04/07 05:43:14;;;;;;;3.37;2.80;;;;;;;16.90;51.64;98781.91;6758327;29;20426;-79
2024/04/07 05:46:35;;;;;;;2.90;2.50;;;;;;;16.84;51.11;98791.91;6755420;29;20371;-79
2024/04/07 05:49:56;;;;;;;6.17;2.70;;;;;;;16.80;51.07;98779.84;6744755;29;20229;-79
2024/04/07 05:53:19;;;;;;;3.77;3.00;;;;;;;17.31;49.47;98778.78;6733143;29;20617;-80
2024/04/07 05:56:39;;;;;;;5.53;3.07;;;;;;;17.41;49.41;98760.75;6755202;29;20356;-78
2024/04/07 06:00:01;;;;;;;3.20;2.50;;;;;;;17.60;49.77;98786.66;6754634;29;20235;-78
2024/04/07 06:03:22;;;;;;;4.50;2.67;;;;;;;17.60;49.80;98794.84;6754691;29;20222;-79
2024/04/07 06:06:43;;;;;;;2.60;2.40;;;;;;;17.14;51.13;98803.31;6754667;29;20227;-78
2024/04/07 06:10:06;;;;;;;5.10;3.00;;;;;;;17.84;48.64;98806.34;6755527;29;20282;-79
2024/04/07 06:13:27;;;;;;;3.70;2.80;;;;;;;17.81;48.81;98804.13;6755243;29;20216;-78
2024/04/07 06:16:49;;;;;;;4.13;2.77;;;;;;;17.50;48.96;98810.19;6755953;29;20621;-82
2024/04/07 06:20:11;;;;;;;3.77;2.50;;;;;;;17.14;50.47;98836.03;6738792;29;20288;-79
2024/04/07 06:23:31;;;;;;;3.43;2.60;;;;;;;17.86;49.40;98823.31;6730488;29;20345;-79
2024/04/07 06:26:54;;;;;;;3.00;2.70;;;;;;;17.90;48.99;98829.88;6736196;29;20227;-83
2024/04/07 06:30:16;;;;;;;4.47;2.67;;;;;;;17.90;49.96;98849.81;6756003;29;20232;-79
2024/04/07 06:33:37;;;;;;;4.40;2.50;;;;;;;17.76;49.85;98858.59;6757125;29;20264;-80
2024/04/07 06:36:58;;;;;;;4.77;2.60;;;;;;;18.28;48.90;98860.72;6757622;29;20209;-79
2024/04/07 06:40:20;;;;;;;3.37;3.07;;;;;;;18.57;48.38;98862.22;6758506;29;20255;-82
2024/04/07 06:43:42;;;;;;;4.40;3.47;;;;;;;18.69;48.29;98860.16;6763513;29;20698;-83
2024/04/07 06:47:04;;;;;;;4.33;3.27;;;;;;;19.24;46.56;98858.06;6762385;29;20377;-81
2024/04/07 06:50:26;;;;;;;3.50;3.10;;;;;;;19.67;46.22;98878.94;6761981;29;20570;-82
2024/04/07 06:53:48;;;;;;;7.57;3.63;;;;;;;19.81;46.00;98880.16;6763492;29;20244;-82
2024/04/07 06:57:08;;;;;;;4.97;3.10;;;;;;;19.80;46.17;98889.47;6753736;29;20223;-80
2024/04/07 07:00:31;;;;;;;3.60;3.00;;;;;;;19.89;45.72;98876.94;6765129;29;20235;-84
2024/04/07 07:03:52;;;;;;;3.40;3.10;;;;;;;19.83;46.63;98892.50;6763805;29;20353;-83
2024/04/07 07:07:13;;;;;;;4.53;3.63;;;;;;;19.60;46.24;98892.84;6762684;29;20233;-83
2024/04/07 07:10:36;;;;;;;5.30;3.57;;;;;;;18.73;49.04;98910.50;6763885;29;20271;-82
2024/04/07 07:13:57;;;;;;;4.70;3.33;;;;;;;19.55;47.54;98919.31;6753387;29;20282;-81
2024/04/07 07:17:20;;;;;;;3.50;3.13;;;;;;;19.63;47.39;98922.41;6738209;29;20300;-82
2024/04/07 07:20:41;;;;;;;5.53;3.60;;;;;;;19.72;46.51;98926.34;6737064;29;20250;-80
2024/04/07 07:24:02;;;;;;;3.30;3.00;;;;;;;20.13;46.05;98917.38;6737338;29;20629;-81
2024/04/07 07:27:24;;;;;;;4.10;3.10;;;;;;;20.13;47.40;98922.84;6737718;29;20323;-81
2024/04/07 07:30:45;;;;;;;5.40;3.50;;;;;;;20.70;45.70;98917.44;6737616;29;20272;-82
2024/04/07 07:34:08;;;;;;;4.93;3.03;;;;;;;20.56;45.22;98916.25;6738251;29;20249;-82
2024/04/07 07:37:30;;;;;;;5.10;3.27;;;;;;;20.01;46.21;98924.09;6737854;29;20213;-81
2024/04/07 07:40:51;;;;;;;4.87;2.70;;;;;;;20.52;44.50;98926.09;6738026;29;20319;-82
2024/04/07 07:44:13;;;;;;;3.43;2.70;;;;;;;20.72;43.92;98913.34;6738237;29;20213;-81
2024/04/07 07:47:34;;;;;;;3.67;2.73;;;;;;;20.87;43.94;98923.53;6737546;29;20261;-81
2024/04/07 07:50:57;;;;;;;4.90;2.83;;;;;;;21.11;43.60;98931.03;6737673;29;20237;-81
2024/04/07 07:54:19;;;;;;;4.10;2.70;;;;;;;21.36;44.24;98940.16;6738388;29;20703;-82
2024/04/07 07:57:40;;;;;;;2.80;2.60;;;;;;;21.51;43.98;98936.63;6738615;29;20554;-80
2024/04/07 08:01:01;;;;;;;3.60;2.60;;;;;;;21.52;44.15;98939.09;6738222;29;20326;-81
2024/04/07 08:04:23;;;;;;;4.30;3.23;;;;;;;21.95;43.92;98946.84;6738239;29;20277;-81
2024/04/07 08:07:45;;;;;;;4.67;2.80;;;;;;;22.39;41.94;98945.19;6737401;29;20240;-80
2024/04/07 08:11:06;;;;;;;8.27;2.40;;;;;;;22.85;40.78;98949.47;6743330;29;20275;-80
2024/04/07 08:14:27;;;;;;;3.57;2.40;;;;;;;23.24;40.89;98957.88;6767803;29;20240;-82
2024/04/07 08:17:49;;;;;;;3.70;2.20;;;;;;;23.48;39.57;98953.34;6767192;29;20287;-81
2024/04/07 08:21:10;;;;;;;3.83;2.47;;;;;;;23.85;37.93;98957.22;6765219;29;20720;-81
2024/04/07 08:24:33;;;;;;;4.13;1.97;;;;;;;24.02;36.39;98899.78;6762326;29;20212;-82
2024/04/07 08:27:55;;;;;;;6.00;2.50;;;;;;;24.55;37.80;98969.56;6760135;29;20589;-82
2024/04/07 08:31:16;;;;;;;3.93;2.33;;;;;;;24.82;36.49;98959.63;6760899;29;20319;-84
2024/04/07 08:34:39;;;;;;;5.43;2.53;;;;;;;25.08;37.16;98985.00;6760127;29;20362;-82
2024/04/07 08:38:00;;;;;;;4.93;2.60;;;;;;;24.83;37.00;98974.25;6759831;29;20211;-80
2024/04/07 08:41:22;;;;;;;4.90;2.40;;;;;;;24.16;37.50;98955.88;6760713;29;20227;-83
2024/04/07 08:44:45;;;;;;;4.83;2.50;;;;;;;25.34;36.61;98978.88;6772492;29;20275;-84
2024/04/07 08:48:07;;;;;;;5.40;2.90;;;;;;;25.25;34.70;98952.25;6785780;29;20237;-83
2024/04/07 08:51:31;;;;;;;4.43;2.57;;;;;;;25.97;33.62;98960.88;6785961;29;20200;-82
2024/04/07 08:54:53;;;;;;;3.93;2.80;;;;;;;25.73;34.21;98956.53;6786276;29;20212;-82
2024/04/07 08:58:20;;;;;;;4.83;2.57;;;;;;;26.02;33.27;98968.25;6775720;29;20824;-83
2024/04/07 09:01:46;;;;;;;4.40;2.57;;;;;;;25.50;33.79;98985.84;6760939;29;20258;-82
2024/04/07 09:05:09;;;;;;;4.73;2.50;;;;;;;25.24;34.21;98934.03;6760798;29;20607;-83
2024/04/07 09:08:30;;;;;;;5.23;2.33;;;;;;;26.09;33.23;98969.53;6760710;29;20237;-83
2024/04/07 09:11:52;;;;;;;6.43;2.30;;;;;;;25.56;32.79;98973.63;6759716;29;20564;-82
2024/04/07 09:15:15;;;;;;;4.47;2.30;;;;;;;25.74;32.94;98972.81;6759759;29;20220;-85
2024/04/07 09:18:36;;;;;;;4.33;2.30;;;;;;;25.67;32.20;98930.09;6758451;29;20292;-82
2024/04/07 09:22:02;;;;;;;4.07;2.70;;;;;;;25.95;32.48;98942.94;6759532;29;20625;-83
2024/04/07 09:25:26;;;;;;;6.43;2.40;;;;;;;25.98;32.73;98970.81;6757464;29;20692;-83
2024/04/07 09:28:48;;;;;;;5.37;2.50;;;;;;;25.92;32.60;98985.81;6757039;29;20235;-82
2024/04/07 09:32:10;;;;;;;6.17;2.20;;;;;;;25.45;33.56;98980.41;6757343;29;20206;-83
2024/04/07 09:35:31;;;;;;;7.90;2.60;;;;;;;25.96;32.85;99000.66;6757254;29;20212;-83
2024/04/07 09:38:53;;;;;;;6.67;2.90;;;;;;;26.93;31.43;98968.28;6755177;29;20226;-83
2024/04/07 09:42:22;;;;;;;3.70;2.40;;;;;;;26.67;31.62;98976.25;6756963;29;20257;-83
2024/04/07 09:45:46;;;;;;;4.47;2.50;;;;;;;26.56;32.08;98958.22;6757472;29;20676;-84
2024/04/07 09:49:25;;;;;;;8.17;2.50;;;;;;;26.61;31.78;98957.28;6758223;29;20235;-83
2024/04/07 09:53:06;;;;;;;6.93;2.60;;;;;;;26.28;32.01;98865.25;6757707;29;20235;-83
2024/04/07 09:56:57;;;;;;;6.90;2.23;;;;;;;26.33;32.41;98891.97;6758723;29;20209;-84
2024/04/07 10:00:29;;;;;;;4.10;2.37;;;;;;;26.73;31.50;98908.63;6758756;29;20641;-84
2024/04/07 10:04:38;;;;;;;6.77;2.67;;;;;;;27.45;30.65;98946.44;6757755;29;20212;-83
2024/04/07 10:42:22;;;;;;;3.90;1.93;;;;;;;29.73;27.18;98948.09;6940580;23;20245;-81
2024/04/07 11:27:41;;;;;;;6.67;2.40;;;;;;;28.51;27.53;98889.22;7075070;23;20230;-83
2024/04/07 11:40:09;;;;;;;8.73;2.70;;;;;;;28.34;26.78;98783.69;6786084;29;20221;-84
2024/04/07 11:43:32;;;;;;;7.23;2.10;;;;;;;28.49;27.37;98795.19;6665811;29;20307;-82
2024/04/07 11:46:53;;;;;;;5.27;2.30;;;;;;;29.26;26.34;98787.06;6667462;29;20202;-82
2024/04/07 11:50:22;;;;;;;5.30;2.30;;;;;;;29.67;26.57;98784.59;6676112;29;20240;-82
2024/04/07 11:53:47;;;;;;;4.70;2.00;;;;;;;30.25;25.34;98820.97;6657907;29;20245;-79
2024/04/07 11:57:08;;;;;;;7.23;2.40;;;;;;;30.75;25.38;98867.28;6659125;29;20288;-83
2024/04/07 12:04:32;;;;;;;6.20;2.13;;;;;;;29.41;26.79;98798.47;6657851;29;20222;-82
2024/04/07 12:07:53;;;;;;;7.23;2.33;;;;;;;31.07;24.81;98868.59;6679859;29;20333;-82
2024/04/07 12:11:20;;;;;;;8.53;2.43;;;;;;;31.13;24.92;98809.53;6686109;29;20229;-84
2024/04/07 12:18:30;;;;;;;8.37;2.70;;;;;;;31.13;23.49;98750.22;6683706;29;20206;-86
2024/04/07 12:22:07;;;;;;;5.23;2.23;;;;;;;29.43;25.86;98789.81;6792574;29;20218;-86
2024/04/07 12:25:28;;;;;;;4.90;2.53;;;;;;;30.41;25.34;98822.03;6796639;29;20613;-84
2024/04/07 12:28:49;;;;;;;8.63;2.40;;;;;;;29.02;27.33;98818.06;6773591;29;20717;-85
2024/04/07 12:32:11;;;;;;;7.23;2.37;;;;;;;29.07;27.57;98770.69;6769314;29;20207;-85
2024/04/07 12:35:33;;;;;;;6.60;2.70;;;;;;;29.34;26.56;98752.88;6785149;29;20208;-83
2024/04/07 12:39:03;;;;;;;4.83;2.27;;;;;;;29.32;26.90;98782.97;6789369;29;20572;-83
2024/04/07 12:43:13;;;;;;;6.60;2.30;;;;;;;28.92;27.17;98734.25;6789229;29;20255;-84
2024/04/07 12:46:35;;;;;;;4.73;2.10;;;;;;;29.14;27.63;98782.13;6789014;29;20212;-83
2024/04/07 12:49:56;;;;;;;7.13;2.30;;;;;;;29.74;27.24;98809.94;6787349;29;20235;-83
2024/04/07 12:53:19;;;;;;;8.53;2.53;;;;;;;29.55;26.58;98756.66;6784019;29;20208;-83
2024/04/07 12:56:41;;;;;;;7.77;2.30;;;;;;;28.86;26.90;98780.78;6783814;29;20211;-83
2024/04/07 13:00:05;;;;;;;7.10;2.43;;;;;;;29.45;27.32;98759.75;6783323;29;20293;-80
2024/04/07 13:03:27;;;;;;;4.90;2.00;;;;;;;30.67;26.16;98764.31;6784400;29;20301;-81
2024/04/07 13:06:48;;;;;;;7.83;2.30;;;;;;;30.62;25.56;98745.00;6784480;29;20201;-81
2024/04/07 13:10:11;;;;;;;8.50;2.47;;;;;;;30.69;24.96;98759.22;6784545;29;20320;-81
2024/04/07 13:13:32;;;;;;;11.70;2.60;;;;;;;30.83;24.67;98710.47;6784744;29;20585;-81
2024/04/07 13:16:53;;;;;;;7.10;2.50;;;;;;;31.44;24.52;98762.59;6783131;29;20280;-81
2024/04/07 13:20:15;;;;;;;5.47;2.50;;;;;;;31.33;23.60;98694.53;6783444;29;20799;-81
2024/04/07 13:23:36;;;;;;;5.10;2.20;;;;;;;30.48;24.57;98708.25;6783575;29;20708;-81
2024/04/07 13:26:59;;;;;;;12.73;2.93;;;;;;;31.03;25.00;98736.72;6782333;29;20233;-82
2024/04/07 13:30:21;;;;;;;6.00;2.60;;;;;;;31.21;23.89;98702.00;6782795;29;20302;-81
2024/04/07 13:33:42;;;;;;;5.87;2.60;;;;;;;30.94;24.66;98733.16;6782716;29;20246;-81
2024/04/07 13:37:03;;;;;;;9.43;2.83;;;;;;;31.65;22.48;98707.63;6782338;29;20644;-82
2024/04/07 13:40:25;;;;;;;9.13;2.90;;;;;;;31.46;21.95;98723.22;6782994;29;20264;-82
2024/04/07 13:43:48;;;;;;;7.70;2.70;;;;;;;31.62;21.78;98710.28;6783093;29;20223;-81
2024/04/07 13:47:10;;;;;;;7.07;2.57;;;;;;;31.56;22.83;98711.66;6781955;29;20256;-82
2024/04/07 13:50:31;;;;;;;11.63;3.03;;;;;;;31.56;22.67;98687.41;6781697;29;20264;-82
2024/04/07 13:53:53;;;;;;;7.93;3.13;;;;;;;31.48;23.11;98682.72;6782158;29;20555;-81
2024/04/07 13:57:16;;;;;;;5.30;2.63;;;;;;;31.37;22.52;98667.56;6781537;29;20251;-82
2024/04/07 14:00:38;;;;;;;11.80;3.13;;;;;;;31.67;22.24;98691.34;6782282;29;20236;-82
2024/04/07 14:04:00;;;;;;;8.90;2.90;;;;;;;31.50;23.05;98671.22;6782531;29;20213;-81
2024/04/07 14:07:24;;;;;;;5.87;2.50;;;;;;;31.82;23.87;98648.06;6781869;29;20586;-84
2024/04/07 14:10:45;;;;;;;6.83;2.87;;;;;;;31.19;22.28;98615.19;6783638;29;20239;-81
2024/04/07 14:14:08;;;;;;;12.00;2.87;;;;;;;31.34;22.49;98651.56;6785245;29;20253;-81
2024/04/07 14:17:32;;;;;;;7.23;3.27;;;;;;;31.65;22.37;98631.50;6784435;29;20225;-82
2024/04/07 14:20:54;;;;;;;11.60;3.20;;;;;;;31.61;22.79;98636.97;6786716;29;20240;-82
2024/04/07 14:24:14;;;;;;;8.90;2.83;;;;;;;31.15;22.04;98615.03;6786034;29;20214;-81
2024/04/07 14:27:36;;;;;;;9.13;2.97;;;;;;;31.84;22.74;98624.25;6784216;29;20298;-82
2024/04/07 14:31:18;;;;;;;12.33;3.33;;;;;;;31.98;22.38;98632.28;6782733;29;20798;-82
2024/04/07 14:38:53;;;;;;;9.90;2.80;;;;;;;31.27;22.50;98615.09;6779549;29;20245;-81
2024/04/07 14:42:21;;;;;;;8.77;2.87;;;;;;;31.79;21.58;98623.69;6784446;29;20207;-82
2024/04/07 14:46:08;;;;;;;6.80;2.70;;;;;;;31.51;21.46;98598.41;6784423;29;20252;-90
2024/04/07 14:49:59;;;;;;;9.73;2.90;;;;;;;31.82;22.22;98569.97;6770427;29;20324;-84
2024/04/07 14:54:09;;;;;;;8.70;3.13;;;;;;;31.41;23.03;98615.56;6745699;29;20223;-84
2024/04/07 14:57:31;;;;;;;6.80;2.93;;;;;;;31.50;22.50;98619.09;6769590;29;20237;-82
2024/04/07 15:00:52;;;;;;;12.63;3.63;;;;;;;31.39;23.44;98620.69;6781857;29;20227;-83
2024/04/07 16:56:00;;;;;;;9.67;3.17;;;;;;;27.09;30.02;98397.47;6733790;29;20664;-84
2024/04/07 18:06:28;;;;;;;9.70;3.10;;;;;;;27.22;33.86;98409.56;6816076;29;20197;-84
2024/04/07 18:14:59;;;;;;;6.87;2.90;;;;;;;26.43;35.86;98361.69;6831075;28;20225;-84
2024/04/07 18:22:30;;;;;;;11.43;3.83;;;;;;;26.05;37.35;98341.16;6736119;29;20224;-83
2024/04/07 18:26:24;;;;;;;14.77;3.60;;;;;;;25.99;37.57;98369.22;6761663;29;20220;-84
2024/04/07 18:30:00;;;;;;;7.97;2.73;;;;;;;26.06;37.80;98361.31;6780818;29;20239;-84
2024/04/07 18:33:38;;;;;;;8.67;2.90;;;;;;;25.96;38.13;98400.25;6783798;29;20320;-86
2024/04/07 18:37:08;;;;;;;9.13;3.00;;;;;;;25.71;38.72;98384.28;6775336;29;20794;-86
2024/04/07 18:40:30;;;;;;;12.50;3.47;;;;;;;24.63;40.90;98324.59;6784249;29;20235;-86
2024/04/07 18:43:50;;;;;;;11.23;2.93;;;;;;;25.12;40.69;98392.78;6777771;29;20212;-86
2024/04/07 18:47:12;;;;;;;8.87;3.30;;;;;;;25.41;39.57;98391.31;6785432;29;20211;-86
2024/04/07 18:50:32;;;;;;;6.83;3.27;;;;;;;25.28;39.90;98375.63;6786222;29;20873;-86
2024/04/07 18:53:55;;;;;;;8.80;3.30;;;;;;;25.28;40.18;98391.34;6805058;29;20203;-86
2024/04/07 18:57:17;;;;;;;10.00;3.03;;;;;;;24.26;41.16;98299.94;6845254;28;20265;-86
2024/04/07 19:00:47;;;;;;;10.13;3.00;;;;;;;23.84;43.22;98380.00;6846751;29;20320;-87
2024/04/07 19:04:09;;;;;;;9.37;3.50;;;;;;;24.41;42.47;98370.47;6843541;29;20218;-87
2024/04/07 19:07:31;;;;;;;8.97;3.57;;;;;;;24.61;42.27;98387.47;6842788;29;20677;-87
2024/04/07 19:10:58;;;;;;;9.03;3.47;;;;;;;24.65;41.70;98369.19;6843719;28;20264;-87
2024/04/07 19:14:19;;;;;;;7.67;3.63;;;;;;;24.49;42.32;98369.78;6844512;28;20214;-87
2024/04/07 19:17:40;;;;;;;15.20;3.90;;;;;;;24.52;42.49;98352.63;6843738;29;20329;-87
2024/04/07 19:21:02;;;;;;;5.70;3.10;;;;;;;23.80;42.47;98282.63;6844379;28;20235;-88
2024/04/07 19:24:23;;;;;;;7.33;3.33;;;;;;;23.92;43.74;98371.09;6844128;29;20214;-89
2024/04/07 19:27:45;;;;;;;11.40;3.97;;;;;;;23.25;44.20;98371.56;6844868;28;20725;-86
2024/04/07 19:31:12;;;;;;;7.63;3.43;;;;;;;23.30;43.80;98310.16;6843790;28;20240;-86
2024/04/07 19:34:32;;;;;;;9.93;3.40;;;;;;;23.80;43.47;98362.47;6843748;29;20224;-86
2024/04/07 19:37:55;;;;;;;8.33;3.37;;;;;;;24.15;42.54;98358.28;6843057;28;20258;-86
2024/04/07 19:41:16;;;;;;;13.57;4.10;;;;;;;24.20;42.22;98350.75;6844652;28;20240;-87
2024/04/07 19:44:39;;;;;;;10.97;3.57;;;;;;;24.06;42.08;98335.34;6844278;29;20295;-87
2024/04/07 19:48:00;;;;;;;10.67;3.23;;;;;;;24.00;42.44;98334.59;6843219;28;20284;-87
2024/04/07 19:51:21;;;;;;;9.57;3.67;;;;;;;23.54;43.19;98339.19;6833719;28;20241;-87
2024/04/07 19:54:42;;;;;;;11.23;3.93;;;;;;;23.61;42.54;98305.81;6816205;29;20263;-86
2024/04/07 19:58:03;;;;;;;9.77;3.23;;;;;;;23.70;42.98;98315.00;6815866;29;20217;-86
2024/04/07 20:01:25;;;;;;;7.57;3.33;;;;;;;23.89;41.35;98297.34;6815486;29;20235;-86
2024/04/07 20:04:48;;;;;;;8.50;2.87;;;;;;;23.96;39.05;98294.19;6815375;29;20222;-86
2024/04/07 20:08:09;;;;;;;8.67;3.30;;;;;;;24.06;38.14;98296.78;6816420;29;20213;-86
2024/04/07 20:11:30;;;;;;;9.00;3.30;;;;;;;24.22;35.38;98298.94;6818516;29;20225;-87
2024/04/07 20:14:51;;;;;;;12.33;2.97;;;;;;;24.43;34.58;98291.06;6816542;29;20612;-86
2024/04/07 20:18:14;;;;;;;12.83;3.80;;;;;;;24.69;33.19;98286.69;6815320;29;20816;-87
2024/04/07 20:21:35;;;;;;;11.13;2.80;;;;;;;24.98;32.12;98285.22;6815719;29;20206;-86
2024/04/07 20:24:56;;;;;;;9.57;2.93;;;;;;;25.24;30.53;98274.44;6816529;29;20797;-87
2024/04/07 20:28:17;;;;;;;8.80;2.97;;;;;;;25.35;30.06;98265.59;6819060;29;20238;-87
2024/04/07 20:31:40;;;;;;;7.93;2.80;;;;;;;25.48;30.47;98247.34;6814343;29;20799;-87
2024/04/07 20:35:03;;;;;;;9.37;2.93;;;;;;;25.66;29.97;98252.66;6814587;29;20234;-87
2024/04/07 20:38:26;;;;;;;12.73;2.77;;;;;;;25.54;30.01;98238.59;6813780;29;20207;-88
2024/04/07 20:41:46;;;;;;;8.90;2.90;;;;;;;25.68;30.09;98241.28;6814111;29;20357;-86
2024/04/07 20:45:08;;;;;;;6.20;2.23;;;;;;;25.59;29.46;98238.47;6813970;29;20213;-86